Time;durP1;ratioP1;P1;durP2;ratioP2;P2;SDS_P1;SDS_P2;PMS_P1;PMS_P2;Temp;Humidity;BMP_temperature;BMP_pressure;BME280_temperature;BME280_humidity;BME280_pressure;Samples;Min_cycle;Max_cycle;Signal;HPM_P1;HPM_P2
2022/07/08 00:01:40;;;;;;;6.30;3.53;;;;;;;;;;6245157;23;20107;-83
2022/07/08 00:04:06;;;;;;;4.78;3.35;;;;;;;;;;6245310;23;20326;-83
2022/07/08 00:06:32;;;;;;;5.75;3.10;;;;;;;;;;6245448;23;20000;-83
2022/07/08 00:08:58;;;;;;;8.20;3.70;;;;;;;;;;6245336;23;20011;-83
2022/07/08 00:11:24;;;;;;;8.38;3.40;;;487.30;2380.80;;;;;;6244701;23;20322;-83
2022/07/08 00:13:50;;;;;;;6.63;3.30;;;;;;;;;;6245030;23;20004;-83
2022/07/08 00:16:16;;;;;;;7.63;3.20;;;;;;;;;;6245231;23;20004;-86
2022/07/08 00:18:42;;;;;;;6.32;3.58;;;487.10;2380.80;;;;;;6245137;23;20087;-85
2022/07/08 00:21:08;;;;;;;7.65;3.72;;;487.00;2380.80;;;;;;6245192;23;20035;-82
2022/07/08 00:23:34;;;;;;;7.00;3.60;;;486.80;2380.80;;;;;;6245318;23;20331;-85
2022/07/08 00:26:00;;;;;;;5.57;3.58;;;486.60;2380.80;;;;;;6244623;23;20000;-83
2022/07/08 00:28:26;;;;;;;5.07;2.97;;;486.70;2380.80;;;;;;6245208;23;20096;-83
2022/07/08 00:30:51;;;;;;;8.05;3.85;;;486.70;2380.80;;;;;;6244925;23;20004;-83
2022/07/08 00:33:17;;;;;;;6.70;3.30;;;486.80;2380.80;;;;;;6245124;23;20015;-83
2022/07/08 00:35:43;;;;;;;5.55;2.90;;;486.60;2380.80;;;;;;6245009;23;20032;-82
2022/07/08 00:38:09;;;;;;;5.40;2.88;;;486.70;2380.80;;;;;;6244690;23;20004;-84
2022/07/08 00:40:35;;;;;;;5.78;3.60;;;486.70;2380.80;;;;;;6245267;23;20135;-83
2022/07/08 00:43:01;;;;;;;6.25;3.40;;;486.70;2380.80;;;;;;6245127;23;20111;-84
2022/07/08 00:45:27;;;;;;;6.80;3.60;;;486.60;2380.80;;;;;;6247190;22;20486;-83
2022/07/08 00:47:53;;;;;;;5.18;3.40;;;486.60;2380.80;;;;;;6246509;23;20001;-84
2022/07/08 00:50:20;;;;;;;6.18;3.20;;;486.50;2380.80;;;;;;6246950;23;20084;-84
2022/07/08 00:52:46;;;;;;;6.88;3.53;;;;;;;;;;6246519;23;20051;-83
2022/07/08 00:55:12;;;;;;;5.80;3.88;;;;;;;;;;6246906;23;20007;-83
2022/07/08 00:57:39;;;;;;;6.40;3.88;;;;;;;;;;6246503;23;20009;-83
2022/07/08 01:00:06;;;;;;;8.77;4.00;;;;;;;;;;6246382;23;20004;-84
2022/07/08 01:02:32;;;;;;;5.75;3.38;;;;;;;;;;6247860;23;20070;-84
2022/07/08 01:04:58;;;;;;;5.47;3.38;;;461.70;2380.80;;;;;;6246825;23;20031;-83
2022/07/08 01:07:24;;;;;;;6.15;3.80;;;461.40;2380.80;;;;;;6247460;22;19992;-84
2022/07/08 01:09:51;;;;;;;6.00;3.20;;;461.50;2380.80;;;;;;6248292;22;20015;-84
2022/07/08 01:12:17;;;;;;;4.35;3.20;;;461.50;2380.80;;;;;;6245982;23;20020;-83
2022/07/08 01:14:44;;;;;;;6.38;3.75;;;461.50;2380.80;;;;;;6246663;23;20000;-83
2022/07/08 01:17:09;;;;;;;6.25;3.28;;;461.60;2380.80;;;;;;6248365;22;20087;-84
2022/07/08 01:19:35;;;;;;;6.03;4.18;;;461.30;2380.80;;;;;;6246260;23;20008;-84
2022/07/08 01:22:02;;;;;;;9.00;6.22;;;461.40;2380.80;;;;;;6246890;23;20000;-84
2022/07/08 01:24:28;;;;;;;10.27;3.70;;;461.40;2380.80;;;;;;6246862;23;20417;-85
2022/07/08 01:26:55;;;;;;;5.60;3.65;;;461.50;2380.80;;;;;;6246426;23;20028;-84
2022/07/08 01:29:21;;;;;;;5.30;3.47;;;461.50;2380.80;;;;;;6247913;22;20000;-84
2022/07/08 01:31:52;;;;;;;4.85;2.95;;;461.20;2380.80;;;;;;6247177;23;20126;-84
2022/07/08 01:34:18;;;;;;;7.13;3.63;;;461.30;2380.80;;;;;;6246199;23;19997;-85
2022/07/08 01:36:44;;;;;;;5.60;3.00;;;461.10;2380.80;;;;;;6246484;23;20012;-85
2022/07/08 01:39:10;;;;;;;4.90;3.03;;;461.10;2380.80;;;;;;6246563;23;20008;-84
2022/07/08 01:41:36;;;;;;;5.18;3.30;;;461.10;2380.80;;;;;;6255668;22;19996;-84
2022/07/08 01:44:01;;;;;;;6.10;3.85;;;461.20;2380.80;;;;;;6258919;23;19996;-84
2022/07/08 01:46:27;;;;;;;7.18;3.60;;;461.10;2380.80;;;;;;6249329;23;20004;-85
2022/07/08 01:48:54;;;;;;;4.57;3.33;;;461.20;2380.80;;;;;;6247145;22;20420;-85
2022/07/08 01:51:20;;;;;;;6.45;3.30;;;461.10;2380.80;;;;;;6246453;23;20098;-84
2022/07/08 01:53:45;;;;;;;5.53;3.17;;;461.00;2380.80;;;;;;6246257;23;20038;-84
2022/07/08 01:56:11;;;;;;;7.00;4.00;;;460.90;2380.80;;;;;;6245755;23;20058;-85
2022/07/08 01:58:37;;;;;;;8.35;3.50;;;461.00;2380.80;;;;;;6245947;23;20016;-85
2022/07/08 02:01:03;;;;;;;8.30;3.50;;;461.00;2380.80;;;;;;6246272;23;20368;-84
2022/07/08 02:03:29;;;;;;;5.47;3.40;;;461.00;2380.80;;;;;;6245877;23;20043;-84
2022/07/08 02:05:54;;;;;;;4.07;3.00;;;460.90;2380.80;;;;;;6247714;22;20042;-84
2022/07/08 02:08:23;;;;;;;7.50;4.28;;;461.00;2380.80;;;;;;6245744;23;20440;-83
2022/07/08 02:13:33;;;;;;;5.72;3.72;;;460.90;2380.80;;;;;;6247340;23;20054;-84
2022/07/08 02:15:58;;;;;;;5.55;3.78;;;436.10;2355.20;;;;;;6245892;23;20004;-84
2022/07/08 02:18:24;;;;;;;12.02;3.85;;;460.80;2380.80;;;;;;6246049;23;20004;-82
2022/07/08 02:20:51;;;;;;;5.25;3.20;;;460.90;2380.80;;;;;;6245906;23;20004;-84
2022/07/08 02:23:16;;;;;;;8.88;4.07;;;461.00;2380.80;;;;;;6245514;23;20004;-84
2022/07/08 02:25:42;;;;;;;6.65;4.13;;;461.00;2380.80;;;;;;6245971;23;20349;-84
2022/07/08 02:28:08;;;;;;;9.30;4.25;;;461.00;2380.80;;;;;;6247446;22;20369;-84
2022/07/08 02:30:34;;;;;;;7.50;4.10;;;460.80;2380.80;;;;;;6245616;23;20000;-84
2022/07/08 02:32:59;;;;;;;7.95;4.03;;;460.80;2380.80;;;;;;6247426;22;20421;-84
2022/07/08 02:35:25;;;;;;;9.57;4.07;;;436.10;2355.20;;;;;;6245879;23;20000;-85
2022/07/08 02:37:51;;;;;;;12.25;4.18;;;436.10;2355.20;;;;;;6245043;23;20445;-84
2022/07/08 02:40:17;;;;;;;7.75;4.15;;;435.90;2355.20;;;;;;6244765;23;20083;-82
2022/07/08 02:42:43;;;;;;;9.73;4.75;;;436.00;2355.20;;;;;;6246121;23;20004;-83
2022/07/08 02:45:09;;;;;;;7.63;4.43;;;435.80;2355.20;;;;;;6244736;23;20000;-83
2022/07/08 02:47:35;;;;;;;9.23;4.70;;;435.80;2355.20;;;;;;6246401;23;20003;-83
2022/07/08 02:50:00;;;;;;;11.00;4.47;;;435.90;2355.20;;;;;;6246174;23;20082;-83
2022/07/08 02:52:26;;;;;;;7.68;4.40;;;435.90;2355.20;;;;;;6245752;23;20450;-84
2022/07/08 02:54:52;;;;;;;7.28;3.95;;;436.00;2355.20;;;;;;6245630;23;20097;-84
2022/07/08 02:57:18;;;;;;;6.38;3.65;;;436.00;2355.20;;;;;;6245513;23;20091;-84
2022/07/08 02:59:44;;;;;;;13.63;4.20;;;436.10;2355.20;;;;;;6245719;23;20496;-82
2022/07/08 03:02:10;;;;;;;11.43;3.92;;;436.10;2355.20;;;;;;6245605;23;20050;-83
2022/07/08 03:04:35;;;;;;;8.15;4.20;;;436.10;2355.20;;;;;;6245331;23;20425;-81
2022/07/08 03:07:01;;;;;;;10.68;3.92;;;436.00;2355.20;;;;;;6245316;23;20004;-81
2022/07/08 03:09:27;;;;;;;7.50;4.28;;;436.00;2355.20;;;;;;6245186;23;20012;-81
2022/07/08 03:11:53;;;;;;;6.70;4.10;;;436.10;2355.20;;;;;;6244447;23;20103;-82
2022/07/08 03:14:19;;;;;;;11.35;4.43;;;435.80;2355.20;;;;;;6246862;22;20318;-81
2022/07/08 03:16:44;;;;;;;6.20;4.00;;;435.90;2355.20;;;;;;6245240;23;20079;-81
2022/07/08 03:19:12;;;;;;;6.40;4.15;;;436.10;2355.20;;;;;;6244959;23;20070;-81
2022/07/08 03:21:38;;;;;;;5.93;3.97;;;460.80;2380.80;;;;;;6245240;23;20028;-81
2022/07/08 03:24:04;;;;;;;6.40;4.05;;;460.80;2380.80;;;;;;6245492;23;20303;-81
2022/07/08 03:26:29;;;;;;;8.73;4.72;;;460.80;2380.80;;;;;;6244889;23;20004;-81
2022/07/08 03:28:55;;;;;;;6.47;3.80;;;436.00;2355.20;;;;;;6244627;23;20004;-81
2022/07/08 03:31:21;;;;;;;6.47;3.78;;;435.80;2355.20;;;;;;6245118;23;20000;-81
2022/07/08 03:33:47;;;;;;;7.20;4.28;;;435.70;2355.20;;;;;;6244786;23;19997;-81
2022/07/08 03:36:13;;;;;;;6.38;4.28;;;435.90;2355.20;;;;;;6245107;23;20000;-81
2022/07/08 03:38:38;;;;;;;6.95;3.58;;;435.90;2355.20;;;;;;6245099;23;20330;-80
2022/07/08 03:41:23;;;;;;;6.68;3.70;;;435.90;2355.20;;;;;;6244696;23;20007;-81
2022/07/08 03:43:53;;;;;;;8.57;3.90;;;435.70;2355.20;;;;;;6246687;22;19996;-81
2022/07/08 03:46:19;;;;;;;8.20;4.22;;;436.00;2355.20;;;;;;6244746;23;20370;-81
2022/07/08 03:48:45;;;;;;;8.85;3.72;;;435.80;2355.20;;;;;;6244958;23;20095;-80
2022/07/08 03:51:11;;;;;;;6.43;3.38;;;436.10;2355.20;;;;;;6245153;23;20008;-83
2022/07/08 03:53:37;;;;;;;5.63;3.72;;;436.10;2355.20;;;;;;6244531;23;20407;-81
2022/07/08 03:56:05;;;;;;;6.80;3.83;;;460.80;2380.80;;;;;;6245000;23;20003;-82
2022/07/08 03:58:32;;;;;;;7.45;4.47;;;460.90;2380.80;;;;;;6245152;23;20434;-81
2022/07/08 04:00:58;;;;;;;8.70;3.70;;;460.80;2380.80;;;;;;6246109;22;20038;-81
2022/07/08 04:03:24;;;;;;;8.70;3.90;;;460.80;2380.80;;;;;;6244956;23;20000;-81
2022/07/08 04:05:49;;;;;;;7.82;4.10;;;460.90;2380.80;;;;;;6244925;23;20000;-81
2022/07/08 04:08:15;;;;;;;6.80;3.40;;;460.90;2380.80;;;;;;6244524;23;20074;-81
2022/07/08 04:10:41;;;;;;;7.55;3.25;;;461.00;2380.80;;;;;;6242869;23;20020;-81
2022/07/08 04:13:07;;;;;;;7.72;3.17;;;461.00;2380.80;;;;;;6244036;23;20007;-81
2022/07/08 04:15:33;;;;;;;6.10;3.30;;;461.00;2380.80;;;;;;6244050;23;20027;-81
2022/07/08 04:17:59;;;;;;;7.93;4.35;;;461.00;2380.80;;;;;;6244921;23;20046;-82
2022/07/08 04:20:25;;;;;;;8.52;3.70;;;460.90;2380.80;;;;;;6245828;23;20024;-84
2022/07/08 04:22:50;;;;;;;5.53;3.55;;;460.80;2380.80;;;;;;6248255;22;20084;-80
2022/07/08 04:25:16;;;;;;;4.38;2.85;;;460.90;2380.80;;;;;;6246760;23;20369;-81
2022/07/08 04:27:42;;;;;;;7.30;3.95;;;460.90;2380.80;;;;;;6246747;23;20000;-79
2022/07/08 04:30:08;;;;;;;11.23;3.42;;;460.90;2380.80;;;;;;6247603;22;20004;-81
2022/07/08 04:32:34;;;;;;;7.82;3.67;;;460.90;2380.80;;;;;;6248001;22;19999;-81
2022/07/08 04:35:00;;;;;;;5.68;3.85;;;461.00;2380.80;;;;;;6246661;23;20000;-81
2022/07/08 04:37:26;;;;;;;8.50;3.78;;;461.10;2380.80;;;;;;6246165;23;20012;-81
2022/07/08 04:39:53;;;;;;;10.75;4.38;;;461.10;2380.80;;;;;;6246712;23;20011;-81
2022/07/08 04:42:19;;;;;;;8.95;3.78;;;461.10;2380.80;;;;;;6246309;23;20418;-82
2022/07/08 04:44:45;;;;;;;10.50;3.67;;;461.30;2380.80;;;;;;6248095;22;20004;-82
2022/07/08 04:47:10;;;;;;;10.05;3.50;;;461.30;2380.80;;;;;;6248472;22;19997;-81
2022/07/08 04:49:36;;;;;;;9.05;3.80;;;461.40;2380.80;;;;;;6246649;23;20015;-81
2022/07/08 04:52:06;;;;;;;6.18;3.63;;;461.40;2380.80;;;;;;6252592;23;20000;-81
2022/07/08 04:54:33;;;;;;;12.38;4.38;;;461.60;2380.80;;;;;;6252170;22;19996;-82
2022/07/08 04:56:58;;;;;;;8.65;4.00;;;461.50;2380.80;;;;;;6246160;23;20330;-82
2022/07/08 04:59:24;;;;;;;9.88;3.63;;;461.50;2380.80;;;;;;6246460;23;20001;-82
2022/07/08 05:01:50;;;;;;;8.20;3.58;;;461.60;2380.80;;;;;;6246570;23;20004;-81
2022/07/08 05:04:16;;;;;;;10.75;3.72;;;461.70;2380.80;;;;;;6246138;23;20326;-81
2022/07/08 05:06:42;;;;;;;9.80;3.92;;;461.50;2380.80;;;;;;6246402;23;20078;-81
2022/07/08 05:09:08;;;;;;;11.85;4.07;;;461.50;2380.80;;;;;;6246345;23;20008;-81
2022/07/08 05:11:34;;;;;;;9.07;4.15;;;461.60;2380.80;;;;;;6245565;23;20026;-81
2022/07/08 05:14:00;;;;;;;8.55;3.80;;;486.40;2380.80;;;;;;6246644;23;20015;-81
2022/07/08 05:16:27;;;;;;;9.27;3.78;;;486.70;2380.80;;;;;;6248120;22;20394;-82
2022/07/08 05:18:53;;;;;;;9.30;3.85;;;486.80;2380.80;;;;;;6246094;23;20094;-82
2022/07/08 05:21:18;;;;;;;9.35;3.20;;;487.00;2380.80;;;;;;6246085;23;20066;-82
2022/07/08 05:23:44;;;;;;;5.22;3.28;;;487.10;2380.80;;;;;;6247885;22;20023;-82
2022/07/08 05:26:10;;;;;;;10.05;3.63;;;487.10;2380.80;;;;;;6245807;23;20008;-80
2022/07/08 05:28:36;;;;;;;7.65;3.55;;;487.30;2380.80;;;;;;6247329;22;20004;-80
2022/07/08 05:31:01;;;;;;;6.80;3.58;;;512.10;2380.80;;;;;;6245578;23;20050;-80
2022/07/08 05:33:27;;;;;;;8.77;3.80;;;512.30;2380.80;;;;;;6245608;23;20070;-80
2022/07/08 05:35:54;;;;;;;6.82;3.63;;;512.40;2380.80;;;;;;6246270;23;20008;-80
2022/07/08 05:38:20;;;;;;;6.72;3.47;;;512.70;2380.80;;;;;;6247488;22;20004;-80
2022/07/08 05:40:45;;;;;;;5.90;3.53;;;512.70;2380.80;;;;;;6247670;22;20071;-80
2022/07/08 05:43:11;;;;;;;5.93;3.05;;;512.80;2380.80;;;;;;6247872;22;20004;-81
2022/07/08 05:45:37;;;;;;;5.85;3.00;;;537.60;2406.40;;;;;;6245753;23;20039;-80
2022/07/08 05:48:03;;;;;;;6.70;3.40;;;512.90;2380.80;;;;;;6246158;23;20417;-80
2022/07/08 05:50:29;;;;;;;7.55;3.72;;;512.90;2380.80;;;;;;6246081;23;20054;-80
2022/07/08 05:52:55;;;;;;;6.63;3.60;;;512.90;2380.80;;;;;;6247368;22;20000;-80
2022/07/08 05:55:21;;;;;;;9.40;3.67;;;537.70;2406.40;;;;;;6246062;23;20000;-79
2022/07/08 05:57:46;;;;;;;7.03;3.25;;;537.80;2406.40;;;;;;6246184;23;20418;-79
2022/07/08 06:00:13;;;;;;;6.72;3.45;;;538.00;2406.40;;;;;;6245672;23;20031;-79
2022/07/08 06:02:39;;;;;;;5.55;3.78;;;538.10;2406.40;;;;;;6245903;23;20000;-78
2022/07/08 06:05:05;;;;;;;6.95;3.55;;;538.20;2406.40;;;;;;6245992;23;19996;-79
2022/07/08 06:07:32;;;;;;;10.20;3.50;;;538.30;2406.40;;;;;;6245612;23;20015;-79
2022/07/08 06:09:59;;;;;;;5.55;3.35;;;538.40;2406.40;;;;;;6245402;23;20031;-80
2022/07/08 06:12:25;;;;;;;9.13;3.38;;;538.40;2406.40;;;;;;6247472;22;20001;-80
2022/07/08 06:14:50;;;;;;;6.15;2.90;;;538.50;2406.40;;;;;;6245640;23;20098;-80
2022/07/08 06:17:16;;;;;;;5.50;3.45;;;538.50;2406.40;;;;;;6245897;23;20007;-80
2022/07/08 06:19:42;;;;;;;6.90;3.33;;;538.50;2406.40;;;;;;6245925;23;20075;-80
2022/07/08 06:22:09;;;;;;;7.72;3.55;;;563.20;2432.00;;;;;;6245424;23;20330;-80
2022/07/08 06:24:35;;;;;;;9.13;3.47;;;563.20;2432.00;;;;;;6245720;23;20007;-80
2022/07/08 06:27:00;;;;;;;8.82;4.07;;;563.30;2432.00;;;;;;6245718;23;20032;-80
2022/07/08 06:29:27;;;;;;;10.65;4.43;;;563.40;2432.00;;;;;;6245280;23;20039;-80
2022/07/08 06:31:52;;;;;;;6.75;4.63;;;563.60;2432.00;;;;;;6246920;22;19997;-80
2022/07/08 06:34:18;;;;;;;5.45;4.05;;;563.60;2432.00;;;;;;6245246;23;20004;-80
2022/07/08 06:36:44;;;;;;;7.80;4.00;;;563.70;2432.00;;;;;;6247223;22;20007;-80
2022/07/08 06:39:10;;;;;;;6.78;3.80;;;563.70;2432.00;;;;;;6247422;22;20002;-79
2022/07/08 06:41:35;;;;;;;6.63;3.85;;;563.90;2432.00;;;;;;6246556;22;19997;-80
2022/07/08 06:44:01;;;;;;;11.48;4.05;;;564.00;2432.00;;;;;;6247172;22;20318;-80
2022/07/08 06:46:28;;;;;;;7.65;3.75;;;564.10;2432.00;;;;;;6247301;22;19992;-80
2022/07/08 06:48:54;;;;;;;8.13;3.60;;;588.80;2432.00;;;;;;6245178;23;20429;-79
2022/07/08 06:51:20;;;;;;;6.75;3.35;;;588.90;2432.00;;;;;;6245487;23;20000;-80
2022/07/08 06:56:30;;;;;;;9.68;4.20;;;589.20;2432.00;;;;;;6246369;23;20038;-80
2022/07/08 06:58:56;;;;;;;5.45;3.78;;;589.50;2432.00;;;;;;6245346;23;20330;-80
2022/07/08 07:01:22;;;;;;;7.85;4.30;;;589.40;2432.00;;;;;;6245475;23;20000;-80
2022/07/08 07:03:47;;;;;;;5.47;3.40;;;589.50;2406.40;;;;;;6246583;22;20003;-80
2022/07/08 07:06:13;;;;;;;8.75;3.20;;;589.50;2406.40;;;;;;6246849;22;20075;-80
2022/07/08 07:08:39;;;;;;;7.65;3.58;;;589.60;2406.40;;;;;;6245242;23;20004;-81
2022/07/08 07:11:05;;;;;;;9.95;4.15;;;589.50;2406.40;;;;;;6244740;23;20008;-81
2022/07/08 07:13:30;;;;;;;7.50;3.13;;;589.70;2380.80;;;;;;6245232;23;20440;-81
2022/07/08 07:15:56;;;;;;;8.38;3.38;;;;;;;;;;6245279;23;20004;-81
2022/07/08 07:18:25;;;;;;;7.28;3.50;;;;;;;;;;6244803;23;20004;-81
2022/07/08 07:20:51;;;;;;;5.43;3.40;;;;;;;;;;6245278;23;20425;-80
2022/07/08 07:23:17;;;;;;;5.18;3.17;;;;;;;;;;6246393;23;19992;-81
2022/07/08 07:25:44;;;;;;;8.65;3.55;;;;;;;;;;6245092;23;19997;-81
2022/07/08 07:28:10;;;;;;;9.45;4.38;;;614.80;2355.20;;;;;;6245153;23;19997;-82
2022/07/08 07:30:35;;;;;;;8.98;3.70;;;614.80;2355.20;;;;;;6244887;23;20000;-83
2022/07/08 07:33:01;;;;;;;7.95;3.60;;;614.80;2329.60;;;;;;6246784;22;20445;-82
2022/07/08 07:35:27;;;;;;;6.25;3.40;;;614.70;2329.60;;;;;;6245267;23;20003;-82
2022/07/08 07:37:53;;;;;;;7.55;3.63;;;614.70;2355.20;;;;;;6244802;23;20010;-82
2022/07/08 07:40:18;;;;;;;6.78;3.60;;;614.70;2329.60;;;;;;6245263;23;20299;-81
2022/07/08 07:42:44;;;;;;;6.30;3.33;;;614.60;2355.20;;;;;;6244934;23;20087;-82
2022/07/08 07:45:10;;;;;;;5.55;3.53;;;614.50;2329.60;;;;;;6244865;23;20009;-83
2022/07/08 07:47:36;;;;;;;5.43;3.53;;;614.80;2329.60;;;;;;6244873;23;20073;-80
2022/07/08 07:50:02;;;;;;;8.95;3.72;;;614.80;2329.60;;;;;;6244885;23;20069;-82
2022/07/08 07:52:28;;;;;;;7.30;3.47;;;615.00;2304.00;;;;;;6244452;23;20395;-82
2022/07/08 07:54:54;;;;;;;8.65;3.35;;;615.00;2278.40;;;;;;6244253;23;20000;-84
2022/07/08 07:57:20;;;;;;;5.80;3.72;;;615.00;2278.40;;;;;;6245092;23;20307;-81
2022/07/08 07:59:45;;;;;;;5.70;3.63;;;615.30;2304.00;;;;;;6245070;23;20015;-81
2022/07/08 08:02:11;;;;;;;5.05;3.10;;;640.10;2252.80;;;;;;6253868;23;20000;-80
2022/07/08 08:04:37;;;;;;;6.55;3.33;;;640.00;2278.40;;;;;;6258634;23;20051;-83
2022/07/08 08:07:03;;;;;;;5.15;3.10;;;640.10;2278.40;;;;;;6244803;23;20419;-82
2022/07/08 08:09:29;;;;;;;9.88;3.08;;;640.20;2278.40;;;;;;6245099;23;20012;-83
2022/07/08 08:11:57;;;;;;;8.20;3.22;;;640.30;2252.80;;;;;;6244709;23;20548;-84
2022/07/08 08:14:23;;;;;;;9.13;3.10;;;640.60;2252.80;;;;;;6244702;23;20031;-84
2022/07/08 08:16:49;;;;;;;6.22;3.10;;;640.70;2278.40;;;;;;6245112;23;20027;-82
2022/07/08 08:19:15;;;;;;;5.78;3.08;;;640.90;2252.80;;;;;;6244472;23;20000;-83
2022/07/08 08:21:40;;;;;;;10.63;3.45;;;665.90;2201.60;;;;;;6245036;23;20005;-83
2022/07/08 08:24:06;;;;;;;6.75;3.55;;;665.90;2227.20;;;;;;6246614;22;20347;-84
2022/07/08 08:26:33;;;;;;;5.03;3.33;;;665.70;2201.60;;;;;;6244433;23;20008;-81
2022/07/08 08:28:58;;;;;;;6.47;3.33;;;665.70;2201.60;;;;;;6246455;22;20008;-82
2022/07/08 08:31:25;;;;;;;5.43;3.22;;;665.60;2201.60;;;;;;6245031;23;20003;-85
2022/07/08 08:33:50;;;;;;;5.15;3.08;;;665.60;2201.60;;;;;;6246546;22;20010;-84
2022/07/08 08:36:16;;;;;;;7.03;3.63;;;640.90;2176.00;;;;;;6245122;23;20079;-86
2022/07/08 08:38:42;;;;;;;11.52;3.90;;;640.60;2176.00;;;;;;6245422;23;20004;-86
2022/07/08 08:41:09;;;;;;;5.28;3.67;;;640.60;2150.40;;;;;;6244811;23;20314;-84
2022/07/08 08:43:35;;;;;;;8.73;3.30;;;640.50;2201.60;;;;;;6245311;23;20441;-84
2022/07/08 08:46:01;;;;;;;10.95;5.45;;;640.60;2176.00;;;;;;6244974;23;20082;-85
2022/07/08 08:48:36;;;;;;;5.72;3.88;;;640.90;2176.00;;;;;;6244645;23;20087;-84
2022/07/08 08:51:05;;;;;;;5.05;3.58;;;665.60;2150.40;;;;;;6245303;23;20023;-85
2022/07/08 08:53:43;;;;;;;10.43;4.13;;;665.70;2150.40;;;;;;6244967;23;20011;-86
2022/07/08 08:56:13;;;;;;;6.97;4.15;;;;;;;;;;6244986;23;20314;-85
2022/07/08 08:58:39;;;;;;;7.68;5.00;;;;;;;;;;6245130;23;20039;-83
2022/07/08 09:01:09;;;;;;;5.00;3.22;;;;;;;;;;6245047;23;20001;-84
2022/07/08 09:03:35;;;;;;;5.78;4.00;;;;;;;;;;6244808;23;20027;-84
2022/07/08 09:06:02;;;;;;;7.65;3.58;;;;;;;;;;6245954;23;20091;-84
2022/07/08 09:08:31;;;;;;;6.20;4.03;;;;;;;;;;6245853;23;20016;-85
2022/07/08 09:10:58;;;;;;;8.73;3.60;;;;;;;;;;6246305;23;20099;-85
2022/07/08 09:13:25;;;;;;;7.78;3.72;;;;;;;;;;6246441;23;20022;-84
2022/07/08 09:15:54;;;;;;;6.32;3.42;;;;;;;;;;6246466;23;20008;-84
2022/07/08 09:18:22;;;;;;;6.10;4.68;;;;;;;;;;6247313;23;20011;-84
2022/07/08 09:20:52;;;;;;;7.45;3.10;;;;;;;;;;6246994;23;20410;-86
2022/07/08 09:23:19;;;;;;;8.43;3.38;;;;;;;;;;6246877;23;20437;-85
2022/07/08 09:25:47;;;;;;;7.85;3.85;;;;;;;;;;6246992;23;19997;-85
2022/07/08 09:28:13;;;;;;;15.45;4.13;;;;;;;;;;6246378;23;19996;-82
2022/07/08 09:30:41;;;;;;;7.22;3.70;;;;;;;;;;6246941;23;20402;-83
2022/07/08 09:33:09;;;;;;;5.13;3.38;;;;;;;;;;6247119;23;20415;-84
2022/07/08 09:35:39;;;;;;;6.70;3.30;;;716.80;2073.60;;;;;;6246852;23;20422;-83
2022/07/08 09:38:09;;;;;;;8.82;3.55;;;;;;;;;;6246822;23;20015;-83
2022/07/08 09:40:36;;;;;;;8.70;3.60;;;;;;;;;;6246219;23;20060;-84
2022/07/08 09:43:10;;;;;;;7.82;3.42;;;717.10;2048.00;;;;;;6246571;23;20545;-84
2022/07/08 09:45:36;;;;;;;6.38;3.72;;;716.90;2048.00;;;;;;6246977;23;20014;-85
2022/07/08 09:48:04;;;;;;;4.88;3.28;;;717.10;2022.40;;;;;;6248561;23;20074;-82
2022/07/08 09:50:33;;;;;;;5.25;3.35;;;;;;;;;;6247005;23;20082;-83
2022/07/08 09:53:00;;;;;;;7.80;3.97;;;;;;;;;;6246894;23;20488;-83
2022/07/08 09:55:33;;;;;;;5.18;3.55;;;717.00;1996.80;;;;;;6246605;23;20130;-84
2022/07/08 09:58:00;;;;;;;8.15;3.95;;;717.00;2048.00;;;;;;6246418;23;20011;-85
2022/07/08 10:00:26;;;;;;;11.27;4.90;;;717.00;2022.40;;;;;;6246459;23;20007;-84
2022/07/08 10:02:52;;;;;;;6.85;3.58;;;716.90;2048.00;;;;;;6246618;23;20039;-85
2022/07/08 10:05:21;;;;;;;5.75;3.47;;;716.90;2022.40;;;;;;6246784;23;19997;-83
2022/07/08 10:07:47;;;;;;;4.75;3.60;;;716.80;2022.40;;;;;;6246863;23;20004;-84
2022/07/08 10:10:13;;;;;;;5.50;3.67;;;691.90;2022.40;;;;;;6245750;23;20431;-84
2022/07/08 10:12:45;;;;;;;7.60;3.58;;;691.80;2048.00;;;;;;6247094;23;20012;-84
2022/07/08 10:15:12;;;;;;;7.00;4.15;;;691.80;2048.00;;;;;;6245791;23;20000;-82
2022/07/08 10:17:45;;;;;;;5.47;4.10;;;691.70;2048.00;;;;;;6246518;23;20000;-84
2022/07/08 10:20:15;;;;;;;5.10;3.60;;;691.80;2048.00;;;;;;6246574;23;20062;-83
2022/07/08 10:23:05;;;;;;;8.73;3.90;;;691.90;2048.00;;;;;;6246455;23;20311;-83
2022/07/08 10:25:31;;;;;;;8.07;3.80;;;716.80;2073.60;;;;;;6246239;23;20034;-84
2022/07/08 10:28:07;;;;;;;6.10;3.85;;;717.10;2048.00;;;;;;6247563;23;20012;-83
2022/07/08 10:31:03;;;;;;;8.30;3.75;;;717.50;2022.40;;;;;;6246282;23;20009;-83
2022/07/08 10:33:30;;;;;;;7.15;3.53;;;717.10;2048.00;;;;;;6214548;23;20000;-84
2022/07/08 10:36:06;;;;;;;6.90;3.47;;;717.30;2048.00;;;;;;6245996;23;20000;-83
2022/07/08 10:38:43;;;;;;;6.53;4.03;;;717.20;2022.40;;;;;;6246231;23;20008;-83
2022/07/08 10:41:18;;;;;;;7.72;3.75;;;717.20;2048.00;;;;;;6246094;23;20011;-83
2022/07/08 10:43:54;;;;;;;5.38;3.60;;;717.40;2022.40;;;;;;6245936;23;20004;-83
2022/07/08 10:46:22;;;;;;;6.97;3.45;;;717.20;2022.40;;;;;;6246189;23;19996;-83
2022/07/08 10:48:59;;;;;;;7.30;3.85;;;717.40;2022.40;;;;;;6246260;23;20395;-83
2022/07/08 10:51:29;;;;;;;4.90;3.40;;;;;;;;;;6246611;23;20026;-83
2022/07/08 10:54:06;;;;;;;5.82;3.50;;;742.60;1971.20;;;;;;6246161;23;19996;-83
2022/07/08 10:56:55;;;;;;;8.77;4.70;;;742.60;2022.40;;;;;;6246358;23;20318;-84
2022/07/08 10:59:29;;;;;;;9.70;4.18;;;742.50;2022.40;;;;;;6245880;23;20422;-83
2022/07/08 11:02:10;;;;;;;5.25;3.90;;;742.50;2022.40;;;;;;6246001;23;19996;-83
2022/07/08 11:04:38;;;;;;;4.93;4.32;;;742.50;1996.80;;;;;;6245351;23;20020;-84
2022/07/08 11:07:28;;;;;;;4.32;3.58;;;742.50;1996.80;;;;;;6245789;23;20381;-84
2022/07/08 11:10:08;;;;;;;9.30;4.82;;;742.40;2022.40;;;;;;6253089;23;20018;-82
2022/07/08 11:12:47;;;;;;;5.47;4.30;;;717.70;2022.40;;;;;;6267997;23;20034;-82
2022/07/08 11:15:17;;;;;;;6.20;4.32;;;717.70;1996.80;;;;;;6253305;23;20012;-84
2022/07/08 11:17:50;;;;;;;5.90;4.45;;;717.40;2022.40;;;;;;6245459;23;20150;-84
2022/07/08 11:20:21;;;;;;;5.55;4.38;;;717.30;2022.40;;;;;;6245544;23;20054;-84
2022/07/08 11:22:56;;;;;;;6.82;4.93;;;717.20;2022.40;;;;;;6245896;23;20090;-84
2022/07/08 11:25:23;;;;;;;6.45;4.97;;;717.10;2022.40;;;;;;6245112;23;20008;-84
2022/07/08 11:27:50;;;;;;;9.95;5.72;;;716.80;2073.60;;;;;;6245458;23;20063;-84
2022/07/08 11:30:16;;;;;;;7.30;6.10;;;716.80;2073.60;;;;;;6244713;23;20008;-83
2022/07/08 11:32:44;;;;;;;7.22;6.03;;;;;;;;;;6244958;23;20146;-83
2022/07/08 11:35:10;;;;;;;9.13;6.18;;;;;;;;;;6245603;23;20000;-81
2022/07/08 11:37:40;;;;;;;7.32;6.05;;;;;;;;;;6245524;23;20023;-84
2022/07/08 11:40:06;;;;;;;7.15;5.95;;;;;;;;;;6244960;23;20008;-84
2022/07/08 11:42:36;;;;;;;7.57;5.93;;;;;;;;;;6245201;23;19996;-83
2022/07/08 11:45:06;;;;;;;9.85;6.40;;;;;;;;;;6245636;23;20087;-82
2022/07/08 11:47:32;;;;;;;10.07;6.13;;;;;;;;;;6245193;23;20083;-83
2022/07/08 11:49:58;;;;;;;9.27;6.57;;;;;;;;;;6245285;23;20308;-83
2022/07/08 11:52:27;;;;;;;10.10;6.53;;;;;;;;;;6245356;23;20062;-82
2022/07/08 11:54:54;;;;;;;7.97;6.50;;;;;;;;;;6244856;23;20469;-84
2022/07/08 11:57:20;;;;;;;7.57;6.82;;;;;;;;;;6245214;23;20000;-82
2022/07/08 11:59:47;;;;;;;9.75;6.88;;;;;;;;;;6245182;23;20011;-84
2022/07/08 12:02:15;;;;;;;7.40;6.60;;;;;;;;;;6245453;23;20026;-83
2022/07/08 12:04:45;;;;;;;8.68;6.30;;;;;;;;;;6245646;23;20008;-83
2022/07/08 12:07:24;;;;;;;8.25;7.45;;;;;;;;;;6245417;23;20000;-83
2022/07/08 12:10:02;;;;;;;8.25;7.38;;;;;;;;;;6245009;23;20090;-83
2022/07/08 12:12:30;;;;;;;7.80;7.00;;;;;;;;;;6245446;23;20064;-83
2022/07/08 12:14:56;;;;;;;10.45;7.45;;;;;;;;;;6244978;23;20000;-84
2022/07/08 12:17:27;;;;;;;11.20;7.57;;;;;;;;;;6245466;23;20004;-84
2022/07/08 12:19:53;;;;;;;8.50;6.95;;;;;;;;;;6245573;23;20004;-84
2022/07/08 12:22:38;;;;;;;9.52;7.38;;;;;;;;;;6245195;23;20000;-84
2022/07/08 12:25:04;;;;;;;11.70;8.30;;;;;;;;;;6245144;23;20036;-84
2022/07/08 12:27:31;;;;;;;9.98;8.98;;;;;;;;;;6245138;23;20082;-84
2022/07/08 12:30:03;;;;;;;9.15;8.27;;;;;;;;;;6244836;23;20010;-82
2022/07/08 12:32:37;;;;;;;9.40;8.52;;;;;;;;;;6252295;23;20020;-83
2022/07/08 12:35:03;;;;;;;9.23;8.23;;;;;;;;;;6262230;23;20009;-84
2022/07/08 12:37:29;;;;;;;9.93;8.25;;;;;;;;;;6264186;23;20031;-83
2022/07/08 12:39:56;;;;;;;9.93;8.15;;;;;;;;;;6261920;23;20000;-84
2022/07/08 12:42:25;;;;;;;11.52;8.32;;;;;;;;;;6272286;22;19988;-84
2022/07/08 12:44:52;;;;;;;8.88;7.97;;;;;;;;;;6273941;22;19996;-80
2022/07/08 12:47:18;;;;;;;9.45;8.25;;;;;;;;;;6272548;22;20015;-82
2022/07/08 12:49:48;;;;;;;8.90;8.00;;;;;;;;;;6255535;22;20451;-83
2022/07/08 12:52:17;;;;;;;11.18;7.85;;;;;;;;;;6247855;23;20000;-84